Time;durP1;ratioP1;P1;durP2;ratioP2;P2;SDS_P1;SDS_P2;PMS_P1;PMS_P2;Temp;Humidity;BMP_temperature;BMP_pressure;BME280_temperature;BME280_humidity;BME280_pressure;Samples;Min_cycle;Max_cycle;Signal;HPM_P1;HPM_P2
2022/02/17 00:00:09;;;;;;;1.50;1.40;;;;;;;6.67;74.45;94801.19;1700842;84;21151;-85
2022/02/17 00:02:37;;;;;;;1.87;1.62;;;;;;;6.71;74.47;94797.25;1700591;84;22093;-85
2022/02/17 00:05:03;;;;;;;2.70;1.72;;;;;;;6.52;73.84;94738.16;1700521;84;21011;-85
2022/02/17 00:07:29;;;;;;;2.17;1.90;;;;;;;6.74;74.03;94727.16;1700663;84;20991;-85
2022/02/17 00:09:54;;;;;;;2.12;1.92;;;;;;;6.71;73.69;94704.33;1700558;84;21052;-85
2022/02/17 00:12:20;;;;;;;3.45;2.20;;;;;;;6.71;74.04;94744.33;1700586;83;21508;-85
2022/02/17 00:14:46;;;;;;;2.47;1.92;;;;;;;6.73;74.00;94790.09;1683624;83;20986;-84
2022/02/17 00:17:11;;;;;;;1.90;1.62;;;;;;;6.74;74.50;94771.03;1671665;85;21007;-85
2022/02/17 00:19:37;;;;;;;2.02;1.52;;;;;;;6.75;74.33;94735.98;1671702;86;21054;-84
2022/02/17 00:22:03;;;;;;;2.33;1.80;;;;;;;6.77;74.42;94747.41;1671560;86;21381;-85
2022/02/17 00:24:29;;;;;;;2.20;1.87;;;;;;;6.77;74.55;94717.22;1671528;86;20999;-84
2022/02/17 00:26:56;;;;;;;2.08;1.87;;;;;;;6.54;74.87;94664.72;1671326;86;21122;-85
2022/02/17 00:29:21;;;;;;;2.25;2.05;;;;;;;6.79;74.53;94715.23;1671614;86;21456;-85
2022/02/17 00:31:47;;;;;;;1.87;1.77;;;;;;;6.78;74.88;94720.59;1671585;86;21038;-84
2022/02/17 00:34:13;;;;;;;2.50;1.62;;;;;;;6.75;75.08;94732.12;1671647;85;21093;-84
2022/02/17 00:36:38;;;;;;;1.57;1.47;;;;;;;6.76;75.25;94729.03;1671517;86;21082;-85
2022/02/17 00:39:05;;;;;;;3.62;3.00;;;;;;;6.78;75.63;94728.34;1671598;86;21434;-85
2022/02/17 00:41:30;;;;;;;6.17;3.95;;;;;;;6.81;75.44;94728.73;1671633;85;21006;-85
2022/02/17 00:43:56;;;;;;;2.80;2.20;;;;;;;6.84;75.81;94728.36;1671676;86;21114;-84
2022/02/17 00:46:22;;;;;;;2.50;2.08;;;;;;;6.88;75.71;94738.58;1671622;85;21426;-85
2022/02/17 00:48:48;;;;;;;3.08;2.20;;;;;;;6.95;75.44;94701.63;1671743;85;21046;-84
2022/02/17 00:51:14;;;;;;;2.98;2.47;;;;;;;6.99;75.49;94669.23;1671715;86;21111;-85
2022/02/17 00:53:40;;;;;;;2.52;2.17;;;;;;;7.03;75.34;94685.44;1671655;86;21399;-84
2022/02/17 00:56:06;;;;;;;2.17;1.95;;;;;;;7.07;75.14;94709.07;1671701;86;21054;-84
2022/02/17 00:58:32;;;;;;;2.30;1.70;;;;;;;7.11;75.38;94723.16;1671529;86;21081;-85
2022/02/17 01:00:58;;;;;;;3.45;2.05;;;;;;;7.17;74.88;94736.59;1671578;85;21460;-85
2022/02/17 01:03:23;;;;;;;2.30;2.10;;;;;;;7.20;74.78;94716.31;1671576;85;21027;-85
2022/02/17 01:05:49;;;;;;;1.95;1.50;;;;;;;7.22;74.89;94732.40;1671736;85;20975;-84
2022/02/17 01:08:15;;;;;;;2.33;1.70;;;;;;;7.27;75.17;94743.41;1671506;85;21010;-84
2022/02/17 01:10:40;;;;;;;5.15;2.87;;;;;;;7.36;75.20;94752.56;1671524;86;21006;-84
2022/02/17 01:13:07;;;;;;;3.30;2.08;;;;;;;7.47;74.88;94735.63;1670558;85;21050;-85
2022/02/17 01:15:33;;;;;;;3.90;2.50;;;;;;;7.54;74.62;94709.28;1657135;85;21022;-85
2022/02/17 01:17:59;;;;;;;2.77;2.20;;;;;;;7.60;74.44;94721.88;1689373;84;21010;-84
2022/02/17 01:20:24;;;;;;;3.15;2.33;;;;;;;7.67;74.32;94726.05;1689383;84;21350;-85
2022/02/17 01:22:51;;;;;;;3.45;2.45;;;;;;;7.72;74.17;94712.00;1669539;85;20979;-84
2022/02/17 01:25:17;;;;;;;2.98;2.67;;;;;;;7.79;74.08;94701.13;1689285;84;21115;-85
2022/02/17 01:27:43;;;;;;;2.83;2.52;;;;;;;7.86;73.88;94711.95;1689171;85;21373;-85
2022/02/17 01:30:10;;;;;;;2.72;2.30;;;;;;;7.89;73.62;94702.49;1689235;84;21063;-84
2022/02/17 01:32:35;;;;;;;4.05;2.45;;;;;;;7.87;73.50;94691.06;1689185;84;21082;-85
2022/02/17 01:35:01;;;;;;;2.87;2.50;;;;;;;7.81;73.65;94664.25;1689163;85;21028;-85
2022/02/17 01:37:27;;;;;;;2.15;1.90;;;;;;;7.81;73.44;94656.48;1689221;85;21354;-85
2022/02/17 01:39:53;;;;;;;2.30;2.05;;;;;;;7.81;73.58;94638.39;1689237;84;21022;-85
2022/02/17 01:42:19;;;;;;;2.90;2.35;;;;;;;7.78;73.79;94629.73;1689160;84;21042;-85
2022/02/17 01:44:46;;;;;;;3.12;2.65;;;;;;;7.52;73.63;94569.92;1689212;84;21358;-85
2022/02/17 01:47:14;;;;;;;3.75;2.50;;;;;;;7.73;73.69;94595.95;1689209;84;21047;-84
2022/02/17 01:49:41;;;;;;;19.20;10.00;;;;;;;7.72;73.71;94584.53;1689203;84;21019;-85
2022/02/17 01:52:07;;;;;;;3.55;2.90;;;;;;;7.69;73.90;94566.86;1689365;84;21369;-85
2022/02/17 01:54:33;;;;;;;2.47;2.22;;;;;;;7.67;73.86;94561.90;1689210;84;21066;-85
2022/02/17 01:56:59;;;;;;;3.45;2.70;;;;;;;7.65;74.10;94571.66;1689005;85;21134;-84
2022/02/17 01:59:25;;;;;;;2.85;2.52;;;;;;;7.63;74.16;94571.05;1689135;85;20967;-85
2022/02/17 02:01:51;;;;;;;4.35;2.90;;;;;;;7.58;74.67;94568.80;1689287;84;20955;-85
2022/02/17 02:04:16;;;;;;;3.25;2.40;;;;;;;7.55;74.78;94564.05;1689104;85;21019;-85
2022/02/17 02:06:42;;;;;;;3.17;2.60;;;;;;;7.49;74.51;94554.05;1689114;84;20955;-84
2022/02/17 02:09:11;;;;;;;4.62;2.83;;;;;;;7.43;75.30;94552.27;1689003;85;21075;-85
2022/02/17 02:11:37;;;;;;;3.30;3.00;;;;;;;7.45;75.53;94551.56;1689015;84;21106;-85
2022/02/17 02:14:02;;;;;;;2.70;2.50;;;;;;;7.46;75.56;94523.42;1689052;84;20999;-85
2022/02/17 02:16:28;;;;;;;2.98;2.67;;;;;;;7.47;75.54;94554.73;1689110;84;21291;-85
2022/02/17 02:18:54;;;;;;;2.90;2.55;;;;;;;7.49;75.62;94541.13;1689335;84;21390;-85
2022/02/17 02:21:23;;;;;;;5.42;3.22;;;;;;;7.48;75.47;94542.92;1689148;85;20999;-85
2022/02/17 02:23:49;;;;;;;41.45;17.73;;;;;;;7.46;76.14;94539.72;1688994;84;21337;-85
2022/02/17 02:26:15;;;;;;;7.15;4.12;;;;;;;7.43;77.24;94544.02;1689084;84;20995;-85
2022/02/17 02:28:41;;;;;;;4.47;4.03;;;;;;;7.35;77.67;94554.61;1669312;85;21023;-85
2022/02/17 02:31:07;;;;;;;4.65;4.10;;;;;;;7.00;79.22;94480.56;1689299;84;21358;-85
2022/02/17 02:33:32;;;;;;;4.47;3.52;;;;;;;7.15;79.76;94497.05;1689351;84;21003;-85
2022/02/17 02:35:59;;;;;;;4.03;3.50;;;;;;;7.05;79.81;94494.14;1689094;84;21370;-84
2022/02/17 02:38:25;;;;;;;3.60;3.30;;;;;;;6.93;80.47;94474.11;1689258;84;21354;-84
2022/02/17 02:40:51;;;;;;;2.40;2.20;;;;;;;6.87;80.57;94444.47;1689032;85;21016;-84
2022/02/17 02:43:16;;;;;;;3.30;2.85;;;;;;;6.82;82.48;94412.00;1689233;85;21038;-84
2022/02/17 02:45:43;;;;;;;2.40;1.92;;;;;;;6.79;81.98;94423.53;1689276;85;21398;-84
2022/02/17 02:48:10;;;;;;;2.52;2.25;;;;;;;6.78;82.44;94404.39;1688927;84;21119;-84
2022/02/17 02:50:36;;;;;;;2.30;1.98;;;;;;;6.77;83.93;94404.09;1689244;85;21094;-83
2022/02/17 02:53:02;;;;;;;2.65;2.00;;;;;;;6.76;83.81;94395.56;1689261;85;21055;-84
2022/02/17 02:55:28;;;;;;;3.10;2.60;;;;;;;6.76;83.91;94394.27;1689589;83;21083;-84
2022/02/17 02:57:54;;;;;;;2.87;1.70;;;;;;;6.80;84.67;94385.11;1687583;85;21416;-84
2022/02/17 03:00:19;;;;;;;2.92;2.30;;;;;;;6.82;84.91;94370.70;1689125;84;21086;-85
2022/02/17 03:02:46;;;;;;;2.62;1.98;;;;;;;6.85;85.08;94378.84;1689194;84;21097;-85
2022/02/17 03:05:12;;;;;;;2.02;1.82;;;;;;;6.89;85.30;94350.32;1689604;85;21066;-85
2022/02/17 03:07:39;;;;;;;2.02;1.70;;;;;;;6.96;84.87;94341.73;1689414;85;21003;-85
2022/02/17 03:10:06;;;;;;;2.77;2.15;;;;;;;6.98;85.58;94309.53;1689178;84;21003;-85
2022/02/17 03:12:35;;;;;;;2.90;2.10;;;;;;;6.98;85.06;94315.98;1689133;85;21084;-84
2022/02/17 03:15:01;;;;;;;2.08;1.60;;;;;;;7.00;85.01;94315.30;1699120;84;21165;-84
2022/02/17 03:17:27;;;;;;;1.30;1.12;;;;;;;7.04;85.48;94297.59;1701166;84;21051;-84
2022/02/17 03:19:53;;;;;;;2.10;1.17;;;;;;;7.11;85.42;94306.06;1701279;84;20966;-84
2022/02/17 03:22:19;;;;;;;1.35;1.20;;;;;;;7.14;84.68;94300.48;1701189;84;21404;-84
2022/02/17 03:24:45;;;;;;;1.82;1.40;;;;;;;7.19;84.42;94292.91;1681284;84;20983;-84
2022/02/17 03:27:10;;;;;;;1.10;0.90;;;;;;;7.21;85.02;94290.40;1701362;84;21098;-84
2022/02/17 03:29:36;;;;;;;2.17;1.95;;;;;;;7.21;85.41;94285.23;1701482;84;21439;-84
2022/02/17 03:32:02;;;;;;;2.50;1.70;;;;;;;7.27;85.86;94266.80;1681419;84;20994;-84
2022/02/17 03:34:28;;;;;;;1.15;1.02;;;;;;;7.34;85.80;94246.87;1701144;84;20982;-84
2022/02/17 03:36:54;;;;;;;0.88;0.80;;;;;;;7.43;84.63;94263.66;1681293;84;20970;-84
2022/02/17 03:39:20;;;;;;;0.57;0.53;;;;;;;7.48;84.88;94219.91;1701261;84;21047;-84
2022/02/17 03:41:47;;;;;;;0.90;0.70;;;;;;;7.59;84.42;94239.05;1701329;84;21007;-84
2022/02/17 03:44:14;;;;;;;0.68;0.60;;;;;;;7.65;84.19;94222.70;1701280;84;21063;-84
2022/02/17 03:46:41;;;;;;;0.50;0.40;;;;;;;7.74;83.51;94251.12;1701258;84;21009;-84
2022/02/17 03:49:07;;;;;;;0.68;0.50;;;;;;;7.83;82.95;94225.28;1701384;84;20987;-84
2022/02/17 03:51:34;;;;;;;0.75;0.50;;;;;;;7.91;82.16;94215.13;1701397;84;21470;-83
2022/02/17 03:53:59;;;;;;;0.50;0.50;;;;;;;7.87;82.25;94202.36;1701266;84;21006;-83
2022/02/17 03:56:25;;;;;;;0.72;0.60;;;;;;;8.15;81.26;94213.45;1701485;83;20959;-84
2022/02/17 03:59:04;;;;;;;0.40;0.40;;;;;;;8.22;80.98;94212.84;1701131;84;21377;-84
2022/02/17 04:01:32;;;;;;;0.65;0.40;;;;;;;8.30;80.19;94238.42;1701381;84;21050;-84
2022/02/17 04:04:00;;;;;;;0.88;0.47;;;;;;;8.33;80.13;94229.44;1701275;84;20984;-84
2022/02/17 04:06:26;;;;;;;1.12;0.60;;;;;;;8.33;79.79;94222.45;1701277;84;21019;-84
2022/02/17 04:08:51;;;;;;;0.90;0.40;;;;;;;8.37;79.99;94230.09;1701381;84;20971;-84
2022/02/17 04:11:17;;;;;;;0.78;0.50;;;;;;;8.45;79.12;94216.03;1701246;84;21022;-85
2022/02/17 04:13:43;;;;;;;0.50;0.40;;;;;;;8.48;79.16;94226.47;1699113;84;21074;-84
2022/02/17 04:16:08;;;;;;;0.75;0.72;;;;;;;8.47;78.76;94211.95;1689428;85;21349;-84
2022/02/17 04:18:36;;;;;;;1.07;0.50;;;;;;;8.49;78.45;94213.31;1689150;85;21004;-84
2022/02/17 04:21:02;;;;;;;1.67;0.55;;;;;;;8.52;78.54;94237.95;1689401;84;21318;-84
2022/02/17 04:23:28;;;;;;;0.90;0.50;;;;;;;8.54;78.54;94257.43;1689321;85;21045;-84
2022/02/17 04:25:53;;;;;;;0.62;0.55;;;;;;;8.55;78.42;94268.57;1689426;85;21074;-84
2022/02/17 04:28:19;;;;;;;0.35;0.35;;;;;;;8.50;77.68;94239.48;1689245;85;21059;-84
2022/02/17 04:30:45;;;;;;;0.75;0.47;;;;;;;8.48;77.73;94256.23;1689254;85;21067;-84
2022/02/17 04:33:11;;;;;;;0.68;0.60;;;;;;;8.42;77.58;94265.65;1689243;85;20968;-85
2022/02/17 04:35:37;;;;;;;0.50;0.40;;;;;;;8.38;77.32;94256.75;1689225;85;20994;-84
2022/02/17 04:38:02;;;;;;;0.80;0.50;;;;;;;8.35;77.90;94246.34;1689195;84;20975;-84
2022/02/17 04:43:13;;;;;;;1.45;0.72;;;;;;;8.32;77.87;94245.97;1672598;85;21142;-85
2022/02/17 04:45:38;;;;;;;1.15;0.60;;;;;;;8.26;77.95;94184.23;1689270;84;21095;-85
2022/02/17 04:48:05;;;;;;;1.27;1.07;;;;;;;8.28;78.17;94194.35;1689314;85;21358;-85
2022/02/17 04:50:31;;;;;;;1.15;0.80;;;;;;;8.09;78.34;94159.98;1689283;84;21330;-85
2022/02/17 04:52:57;;;;;;;0.93;0.62;;;;;;;8.21;78.38;94173.76;1689223;84;21027;-85
2022/02/17 04:55:23;;;;;;;0.60;0.50;;;;;;;8.20;78.50;94194.17;1689691;83;21034;-84
2022/02/17 04:57:48;;;;;;;1.27;1.10;;;;;;;8.21;78.65;94183.31;1678040;84;21999;-85
2022/02/17 05:00:15;;;;;;;1.22;0.70;;;;;;;8.21;78.53;94184.11;1665030;85;21102;-86
2022/02/17 05:02:40;;;;;;;0.72;0.50;;;;;;;8.21;78.59;94189.28;1683374;85;20988;-84
2022/02/17 05:05:07;;;;;;;0.42;0.40;;;;;;;8.25;78.48;94180.56;1659010;86;21051;-85
2022/02/17 05:07:33;;;;;;;1.55;0.85;;;;;;;8.26;79.00;94167.41;1683304;85;20964;-85
2022/02/17 05:09:59;;;;;;;0.40;0.40;;;;;;;8.26;79.09;94160.16;1658999;86;21409;-85
2022/02/17 05:12:24;;;;;;;0.50;0.40;;;;;;;8.37;78.90;94168.48;1683308;85;21051;-85
2022/02/17 05:14:50;;;;;;;0.40;0.40;;;;;;;8.45;78.68;94146.16;1661750;84;21007;-85
2022/02/17 05:17:17;;;;;;;0.50;0.40;;;;;;;8.51;78.59;94152.27;1661028;86;21092;-85
2022/02/17 05:19:44;;;;;;;0.70;0.50;;;;;;;8.53;78.58;94136.79;1654745;86;21402;-85
2022/02/17 05:22:09;;;;;;;0.40;0.40;;;;;;;8.55;78.24;94147.70;1654769;86;21035;-85
2022/02/17 05:24:35;;;;;;;0.57;0.30;;;;;;;8.54;78.14;94125.93;1640169;87;21059;-85
2022/02/17 05:27:01;;;;;;;0.30;0.30;;;;;;;8.57;77.92;94131.95;1661541;86;21007;-85
2022/02/17 05:29:27;;;;;;;1.98;0.93;;;;;;;8.57;78.13;94131.95;1661147;86;21040;-85
2022/02/17 05:31:52;;;;;;;3.52;1.27;;;;;;;8.57;78.08;94138.42;1654590;86;21032;-85
2022/02/17 05:34:18;;;;;;;8.98;4.50;;;;;;;8.53;78.31;94127.73;1654756;86;21012;-85
2022/02/17 05:36:44;;;;;;;65.50;34.08;;;;;;;8.53;78.60;94139.88;1640235;87;21014;-85
2022/02/17 05:39:10;;;;;;;68.80;30.52;;;;;;;8.51;78.87;94148.38;1661384;86;21021;-85
2022/02/17 05:41:36;;;;;;;48.87;16.82;;;;;;;8.48;79.28;94126.83;1661215;86;21435;-85
2022/02/17 05:44:02;;;;;;;23.52;7.22;;;;;;;8.47;79.42;94142.08;1660920;86;21098;-86
2022/02/17 05:46:27;;;;;;;20.62;6.53;;;;;;;8.46;79.52;94118.48;1661319;86;21016;-86
2022/02/17 05:48:53;;;;;;;13.75;4.78;;;;;;;8.40;79.26;94117.08;1661163;86;21437;-85
2022/02/17 05:51:19;;;;;;;24.87;8.08;;;;;;;8.41;79.34;94119.16;1661127;86;21007;-85
2022/02/17 05:53:45;;;;;;;21.05;6.95;;;;;;;8.42;79.02;94122.81;1661204;86;21015;-85
2022/02/17 05:56:11;;;;;;;38.65;13.60;;;;;;;8.41;79.08;94113.47;1661234;86;21394;-85
2022/02/17 05:58:37;;;;;;;19.37;6.05;;;;;;;8.40;79.18;94115.78;1661176;86;21067;-85
2022/02/17 06:01:03;;;;;;;17.15;5.62;;;;;;;8.39;79.33;94116.00;1661320;86;21067;-85
2022/02/17 06:03:29;;;;;;;8.55;3.20;;;;;;;8.41;79.58;94120.45;1661299;86;21350;-85
2022/02/17 06:05:55;;;;;;;10.85;3.33;;;;;;;8.42;79.92;94112.46;1661331;86;21031;-85
2022/02/17 06:08:21;;;;;;;9.25;3.52;;;;;;;8.46;79.62;94126.24;1661443;86;21000;-85
2022/02/17 06:10:48;;;;;;;37.80;17.17;;;;;;;8.43;80.19;94124.39;1661297;86;21353;-85
2022/02/17 06:13:14;;;;;;;40.60;14.15;;;;;;;8.38;80.34;94097.10;1661117;86;21098;-85
2022/02/17 06:15:39;;;;;;;38.95;11.90;;;;;;;8.32;80.89;94108.33;1695626;83;21047;-85
2022/02/17 06:18:06;;;;;;;20.55;5.65;;;;;;;8.25;81.29;94096.48;1694699;85;21456;-85
2022/02/17 06:20:33;;;;;;;25.75;9.55;;;;;;;8.20;82.10;94128.71;1706638;84;21154;-83
2022/02/17 06:22:59;;;;;;;8.23;3.33;;;;;;;8.18;81.91;94121.68;1707073;83;21539;-83
2022/02/17 06:25:25;;;;;;;25.88;9.70;;;;;;;8.11;82.30;94094.09;1707034;84;21019;-83
2022/02/17 06:27:51;;;;;;;27.37;8.10;;;;;;;8.06;82.81;94106.12;1707065;83;21296;-83
2022/02/17 06:30:18;;;;;;;25.45;7.47;;;;;;;8.03;83.36;94097.52;1706853;84;21489;-83
2022/02/17 06:32:53;;;;;;;11.22;4.70;;;;;;;7.99;83.68;94101.06;1706980;83;21012;-85
2022/02/17 06:35:21;;;;;;;9.48;4.03;;;;;;;7.94;83.56;94095.74;1706791;84;21111;-85
2022/02/17 06:37:47;;;;;;;16.02;5.72;;;;;;;7.92;84.99;94075.78;1706994;84;21003;-85
2022/02/17 06:40:13;;;;;;;15.95;4.45;;;;;;;7.91;84.87;94078.09;1707019;84;20992;-85
2022/02/17 06:42:40;;;;;;;6.15;2.52;;;;;;;7.92;85.48;94072.41;1706834;84;20972;-85
2022/02/17 06:45:06;;;;;;;58.92;19.17;;;;;;;7.92;85.94;94043.46;1707032;84;20956;-85
2022/02/17 06:47:32;;;;;;;10.30;4.42;;;;;;;7.98;85.98;94025.00;1694703;85;21047;-86
2022/02/17 06:49:57;;;;;;;10.55;3.90;;;;;;;8.02;85.50;94030.78;1707028;84;21552;-85
2022/02/17 06:52:23;;;;;;;20.72;6.78;;;;;;;8.07;84.61;94012.00;1707136;83;21031;-85
2022/02/17 06:54:49;;;;;;;19.92;8.30;;;;;;;8.11;84.23;94022.97;1706783;83;21060;-85
2022/02/17 06:57:21;;;;;;;25.48;9.33;;;;;;;8.16;83.97;94030.58;1707077;83;21003;-84
2022/02/17 06:59:43;;;;;;;15.65;5.22;;;;;;;8.24;83.65;94019.38;1706520;84;20973;-85
2022/02/17 07:02:09;;;;;;;6.65;2.67;;;;;;;8.35;83.47;94005.70;1706820;84;21012;-85
2022/02/17 07:04:34;;;;;;;11.60;4.15;;;;;;;8.47;82.95;93975.94;1706967;84;21080;-85
2022/02/17 07:07:00;;;;;;;28.77;10.18;;;;;;;8.39;81.93;93946.01;1706980;83;21416;-85
2022/02/17 07:09:26;;;;;;;14.90;5.58;;;;;;;8.72;81.60;93965.31;1706958;84;20995;-85
2022/02/17 07:11:54;;;;;;;16.10;7.17;;;;;;;8.86;80.76;93946.42;1707093;84;21031;-85
2022/02/17 07:14:20;;;;;;;17.98;7.37;;;;;;;8.95;80.51;93959.30;1706872;84;21376;-86
2022/02/17 07:16:46;;;;;;;15.00;5.83;;;;;;;9.05;80.01;93959.98;1706858;83;21415;-85
2022/02/17 07:19:12;;;;;;;16.17;6.70;;;;;;;9.13;79.26;93938.91;1707055;83;20996;-85
2022/02/17 07:21:38;;;;;;;24.55;12.68;;;;;;;9.22;79.37;93954.34;1688725;84;21004;-85
2022/02/17 07:24:04;;;;;;;13.38;6.00;;;;;;;9.29;78.26;93936.86;1697883;82;21003;-86
2022/02/17 07:26:30;;;;;;;30.90;11.83;;;;;;;9.38;78.29;93960.06;1728512;83;21018;-85
2022/02/17 07:28:56;;;;;;;25.57;11.33;;;;;;;9.47;77.69;93935.35;1728745;83;21163;-85
2022/02/17 07:31:22;;;;;;;20.40;7.25;;;;;;;9.58;77.18;93922.81;1728782;83;21312;-86
2022/02/17 07:33:47;;;;;;;15.90;6.10;;;;;;;9.74;76.75;93915.27;1723786;83;21024;-86
2022/02/17 07:36:13;;;;;;;12.63;5.53;;;;;;;9.90;75.99;93920.97;1723834;83;21358;-85
2022/02/17 07:38:39;;;;;;;6.70;3.60;;;;;;;10.02;74.91;93928.67;1723483;83;22039;-85
2022/02/17 07:41:06;;;;;;;12.93;6.55;;;;;;;10.05;75.58;93906.14;1723615;83;20980;-86
2022/02/17 07:43:32;;;;;;;21.25;9.70;;;;;;;10.23;74.85;93910.57;1703259;83;21915;-86
2022/02/17 07:46:00;;;;;;;13.08;6.65;;;;;;;10.04;74.82;93911.05;1723518;83;21126;-86
2022/02/17 07:48:28;;;;;;;20.82;8.05;;;;;;;10.35;73.36;93910.98;1723336;83;21027;-85
2022/02/17 07:50:55;;;;;;;6.53;3.10;;;;;;;10.43;73.32;93915.78;1723507;83;21095;-85
2022/02/17 07:53:23;;;;;;;16.00;7.37;;;;;;;10.50;73.28;93934.55;1723513;83;21071;-85
2022/02/17 07:55:49;;;;;;;20.60;10.18;;;;;;;10.53;72.34;93924.98;1723844;83;21036;-86
2022/02/17 07:58:17;;;;;;;20.43;10.00;;;;;;;10.57;72.76;93944.23;1723654;83;21448;-86
2022/02/17 08:00:44;;;;;;;23.05;9.55;;;;;;;10.59;72.18;93923.25;1723868;83;21028;-85
2022/02/17 08:03:11;;;;;;;4.58;2.37;;;;;;;10.57;72.45;93939.05;1723919;83;21059;-86
2022/02/17 08:05:38;;;;;;;3.77;1.67;;;;;;;10.52;74.73;93931.20;1723731;83;21067;-86
2022/02/17 08:08:06;;;;;;;3.98;2.35;;;;;;;10.39;75.80;94015.39;1723424;83;20980;-85
2022/02/17 08:10:32;;;;;;;1.12;0.88;;;;;;;10.28;77.71;94114.91;1723528;83;21366;-85
2022/02/17 08:12:58;;;;;;;2.77;1.00;;;;;;;10.15;77.54;94409.72;1723335;83;21030;-85
2022/02/17 08:15:24;;;;;;;1.95;1.15;;;;;;;9.46;70.85;94437.17;1725536;83;21034;-86
2022/02/17 08:17:49;;;;;;;2.75;1.00;;;;;;;8.10;67.55;94413.25;1728038;83;21937;-86
2022/02/17 08:20:15;;;;;;;5.00;2.35;;;;;;;6.93;68.73;94461.20;1728495;83;20999;-85
2022/02/17 08:22:50;;;;;;;2.72;1.17;;;;;;;6.19;70.44;94418.31;1728515;83;21433;-85
2022/02/17 08:25:16;;;;;;;2.50;1.30;;;;;;;5.71;71.57;94436.09;1725889;82;21354;-85
2022/02/17 08:27:42;;;;;;;7.95;3.55;;;;;;;5.30;72.39;94416.94;1728331;83;21031;-85
2022/02/17 08:30:09;;;;;;;3.00;0.98;;;;;;;5.00;73.33;94420.35;1728151;83;21019;-84
2022/02/17 08:32:38;;;;;;;1.45;0.82;;;;;;;4.86;74.50;94426.45;1728533;83;21027;-84
2022/02/17 08:35:05;;;;;;;1.72;1.17;;;;;;;4.60;75.78;94411.73;1728320;83;21063;-85
2022/02/17 08:37:31;;;;;;;2.50;1.37;;;;;;;4.41;76.17;94429.17;1728589;83;21361;-85
2022/02/17 08:39:57;;;;;;;6.37;5.78;;;;;;;4.33;76.93;94441.69;1728381;83;20960;-85
2022/02/17 08:42:22;;;;;;;2.35;1.85;;;;;;;4.22;77.72;94439.64;1728590;83;20963;-85
2022/02/17 08:44:48;;;;;;;2.50;2.02;;;;;;;4.20;78.30;94436.47;1728319;83;21106;-85
2022/02/17 08:47:17;;;;;;;8.00;4.15;;;;;;;4.18;78.46;94436.66;1728546;83;21027;-85
2022/02/17 08:49:42;;;;;;;19.32;10.03;;;;;;;4.20;78.64;94453.17;1727879;83;21036;-85
2022/02/17 08:52:08;;;;;;;8.05;3.70;;;;;;;4.22;79.76;94458.42;1728567;83;21440;-86
2022/02/17 08:54:34;;;;;;;6.75;2.98;;;;;;;4.11;79.77;94471.83;1728380;83;20971;-86
2022/02/17 08:57:00;;;;;;;7.87;3.95;;;;;;;4.07;80.07;94464.20;1728651;83;20987;-86
2022/02/17 08:59:26;;;;;;;5.25;4.10;;;;;;;4.07;80.36;94455.69;1728420;83;20933;-86
2022/02/17 09:01:53;;;;;;;5.50;5.00;;;;;;;4.05;80.60;94451.20;1728697;83;20972;-86
2022/02/17 09:04:19;;;;;;;6.22;5.45;;;;;;;4.03;81.20;94442.41;1728602;83;21062;-86
2022/02/17 09:06:48;;;;;;;3.33;2.65;;;;;;;4.02;80.99;94452.37;1728631;83;21363;-87
2022/02/17 09:09:15;;;;;;;2.75;2.17;;;;;;;3.99;81.82;94436.55;1728488;83;21054;-87
2022/02/17 09:11:41;;;;;;;3.92;3.62;;;;;;;3.97;82.27;94409.77;1728650;83;20972;-87
2022/02/17 09:14:07;;;;;;;6.67;5.12;;;;;;;3.98;82.36;94428.05;1697920;83;21016;-87
2022/02/17 09:16:34;;;;;;;4.12;2.62;;;;;;;3.97;83.51;94444.45;1696588;83;21434;-87
2022/02/17 09:19:00;;;;;;;7.70;4.05;;;;;;;3.96;84.47;94438.22;1689041;84;20972;-87
2022/02/17 09:21:26;;;;;;;8.73;4.83;;;;;;;3.91;84.26;94477.33;1689065;85;21024;-87
2022/02/17 09:23:51;;;;;;;4.97;3.20;;;;;;;3.89;86.66;94489.54;1686545;83;22227;-87
2022/02/17 09:26:18;;;;;;;10.30;5.25;;;;;;;3.89;86.44;94493.39;1678733;85;21007;-87
2022/02/17 09:28:48;;;;;;;7.10;4.10;;;;;;;3.94;86.13;94467.16;1688833;85;21066;-87
2022/02/17 09:31:18;;;;;;;13.78;7.60;;;;;;;3.99;86.58;94452.77;1688527;84;21063;-87
2022/02/17 09:33:43;;;;;;;6.78;4.37;;;;;;;4.05;85.77;94419.88;1688913;84;21004;-87
2022/02/17 09:36:08;;;;;;;9.00;4.80;;;;;;;4.12;85.71;94427.14;1688707;85;21421;-87
2022/02/17 09:38:34;;;;;;;7.05;4.58;;;;;;;4.16;86.81;94424.49;1688763;85;20992;-87
2022/02/17 09:41:03;;;;;;;4.40;3.10;;;;;;;4.22;86.42;94403.65;1688864;85;21047;-86
2022/02/17 09:43:29;;;;;;;4.40;2.40;;;;;;;4.29;85.85;94412.20;1688647;84;20985;-86
2022/02/17 09:45:55;;;;;;;7.60;3.98;;;;;;;4.38;86.47;94413.61;1688977;84;21430;-86
2022/02/17 09:48:21;;;;;;;12.55;6.58;;;;;;;4.46;86.54;94405.75;1688904;84;21016;-87
2022/02/17 09:50:47;;;;;;;16.82;8.10;;;;;;;4.57;86.09;94417.27;1688932;85;20968;-86
2022/02/17 09:53:13;;;;;;;14.00;6.70;;;;;;;4.65;86.12;94415.02;1680729;85;20980;-86
2022/02/17 09:55:40;;;;;;;10.65;5.70;;;;;;;4.73;86.10;94422.58;1688745;84;21016;-87
2022/02/17 09:58:05;;;;;;;11.80;7.03;;;;;;;4.80;86.53;94388.14;1688883;84;20985;-86
2022/02/17 10:00:32;;;;;;;8.53;4.58;;;;;;;4.89;86.54;94387.98;1688927;85;21039;-86
2022/02/17 10:03:32;;;;;;;8.85;4.85;;;;;;;4.99;85.95;94394.81;1688791;85;21012;-86
2022/02/17 10:06:11;;;;;;;9.08;4.83;;;;;;;5.05;86.23;94383.75;1652083;87;21464;-86
2022/02/17 10:08:37;;;;;;;8.28;5.00;;;;;;;5.12;85.90;94390.98;1652402;87;21075;-86
2022/02/17 10:11:06;;;;;;;9.88;4.60;;;;;;;5.19;85.78;94399.48;1698100;83;21402;-86
2022/02/17 10:13:32;;;;;;;6.05;4.05;;;;;;;5.24;85.35;94406.15;1722827;82;21035;-86
2022/02/17 10:15:58;;;;;;;8.05;5.37;;;;;;;5.33;84.76;94400.30;1693064;84;21527;-86
2022/02/17 10:18:27;;;;;;;5.53;3.20;;;;;;;5.42;84.71;94416.66;1698788;84;21064;-85
2022/02/17 10:21:06;;;;;;;6.90;3.85;;;;;;;5.51;83.77;94399.70;1698853;84;21076;-86
2022/02/17 10:23:44;;;;;;;3.80;2.55;;;;;;;5.58;83.33;94387.62;1698591;84;21013;-86
2022/02/17 10:26:19;;;;;;;7.90;3.72;;;;;;;5.60;83.30;94398.03;1697495;84;21012;-86
2022/02/17 10:28:54;;;;;;;2.45;1.60;;;;;;;5.63;82.84;94392.47;1698413;84;21103;-86
2022/02/17 10:31:27;;;;;;;4.75;3.58;;;;;;;5.68;83.00;94384.92;1698584;84;21035;-86
2022/02/17 10:33:54;;;;;;;4.37;2.58;;;;;;;5.70;82.85;94385.55;1680768;84;21540;-86
2022/02/17 10:36:42;;;;;;;2.72;2.00;;;;;;;5.77;82.65;94382.95;1698870;84;21144;-87
2022/02/17 10:39:22;;;;;;;3.40;1.90;;;;;;;5.84;82.66;94368.25;1698796;84;20960;-86
2022/02/17 10:41:57;;;;;;;4.80;2.75;;;;;;;5.91;82.09;94370.87;1698949;84;21048;-86
2022/02/17 10:44:26;;;;;;;3.00;2.05;;;;;;;5.98;82.30;94378.08;1698890;84;21042;-87
2022/02/17 10:46:52;;;;;;;2.67;1.37;;;;;;;6.02;82.04;94371.55;1680384;84;20988;-87
2022/02/17 10:49:20;;;;;;;2.77;1.40;;;;;;;6.06;81.84;94382.23;1698721;84;21067;-87
2022/02/17 10:51:47;;;;;;;3.25;2.22;;;;;;;6.16;81.14;94367.12;1698870;84;21027;-87
2022/02/17 10:54:21;;;;;;;3.85;2.12;;;;;;;6.26;81.18;94366.20;1698810;84;21083;-87
2022/02/17 10:56:51;;;;;;;4.20;1.82;;;;;;;6.30;80.30;94364.79;1698930;84;21434;-87
2022/02/17 11:01:59;;;;;;;5.17;3.05;;;;;;;6.35;79.77;94362.91;1698916;84;21107;-87
2022/02/17 11:04:24;;;;;;;6.37;3.50;;;;;;;6.38;79.53;94365.08;1698835;84;21403;-87
2022/02/17 11:06:53;;;;;;;3.33;2.52;;;;;;;6.39;79.22;94368.73;1698920;84;21048;-87
2022/02/17 11:09:19;;;;;;;5.58;3.22;;;;;;;6.41;78.89;94362.88;1698851;84;21347;-86
2022/02/17 11:11:53;;;;;;;2.83;2.35;;;;;;;6.44;79.29;94383.09;1698769;83;21079;-86
2022/02/17 11:14:40;;;;;;;3.15;2.10;;;;;;;6.43;78.56;94376.85;1698779;84;21079;-86
2022/02/17 11:17:08;;;;;;;4.25;2.40;;;;;;;6.50;78.54;94369.87;1698202;84;21084;-86
2022/02/17 11:19:33;;;;;;;4.12;2.15;;;;;;;6.59;78.37;94350.08;1698759;84;20989;-85
2022/02/17 11:21:59;;;;;;;4.42;2.65;;;;;;;6.64;77.98;94345.59;1698930;84;21504;-85
2022/02/17 11:24:25;;;;;;;4.20;2.33;;;;;;;6.65;77.60;94350.25;1698925;84;20992;-85
2022/02/17 11:27:05;;;;;;;4.12;2.62;;;;;;;6.70;78.03;94355.10;1680584;84;21882;-85
2022/02/17 11:29:38;;;;;;;4.35;2.50;;;;;;;6.82;77.99;94365.54;1698673;84;21016;-85
2022/02/17 11:32:02;;;;;;;7.40;3.67;;;;;;;6.97;78.42;94353.14;1697971;84;21079;-85
2022/02/17 11:34:48;;;;;;;3.87;2.10;;;;;;;7.11;78.18;94357.72;1681013;84;20999;-84
2022/02/17 11:37:33;;;;;;;3.35;1.70;;;;;;;7.18;77.89;94373.48;1696813;84;21048;-83
2022/02/17 11:40:08;;;;;;;5.55;2.45;;;;;;;7.24;76.63;94386.05;1698706;84;20996;-84
2022/02/17 11:42:38;;;;;;;2.92;1.90;;;;;;;7.27;76.55;94389.50;1698695;84;20980;-84